createdAt,value
2018-01-24T00:01:16.558Z,16.33
2018-01-24T00:03:44.759Z,18.30
2018-01-24T00:06:12.870Z,16.63
2018-01-24T00:08:40.946Z,17.90
2018-01-24T00:11:13.019Z,17.67
2018-01-24T00:13:40.835Z,17.27
2018-01-24T00:16:08.849Z,14.83
2018-01-24T00:18:36.613Z,16.43
2018-01-24T00:21:12.676Z,20.83
2018-01-24T00:23:40.497Z,16.90
2018-01-24T00:26:08.212Z,18.30
2018-01-24T00:28:36.028Z,17.80
2018-01-24T00:31:03.844Z,14.77
2018-01-24T00:33:31.489Z,16.83
2018-01-24T00:36:03.859Z,17.30
2018-01-24T00:38:32.648Z,18.17
2018-01-24T00:41:02.555Z,17.53
2018-01-24T00:43:30.422Z,16.17
2018-01-24T00:46:02.608Z,14.70
2018-01-24T00:48:30.554Z,17.80
2018-01-24T00:50:58.591Z,15.83
2018-01-24T00:53:26.557Z,17.30
2018-01-24T00:55:56.237Z,16.87
2018-01-24T00:58:26.224Z,16.70
2018-01-24T01:00:54.379Z,17.20
2018-01-24T01:03:22.223Z,16.83
2018-01-24T01:05:50.250Z,16.00
2018-01-24T01:08:18.802Z,18.80
2018-01-24T01:10:46.894Z,17.70
2018-01-24T01:13:14.832Z,19.43
2018-01-24T01:15:42.575Z,16.43
2018-01-24T01:18:10.415Z,18.50
2018-01-24T01:20:38.228Z,17.13
2018-01-24T01:23:06.432Z,18.13
2018-01-24T01:25:34.387Z,20.20
2018-01-24T01:28:02.451Z,16.57
2018-01-24T01:30:32.536Z,16.57
2018-01-24T01:33:00.390Z,15.47
2018-01-24T01:35:28.649Z,19.50
2018-01-24T01:37:56.461Z,18.23
2018-01-24T01:40:26.629Z,17.77
2018-01-24T01:42:58.736Z,15.97
2018-01-24T01:45:26.557Z,16.67
2018-01-24T01:47:54.400Z,17.13
2018-01-24T01:50:22.336Z,16.33
2018-01-24T01:52:50.205Z,15.37
2018-01-24T01:55:18.169Z,18.23
2018-01-24T01:57:46.013Z,19.50
2018-01-24T02:00:14.127Z,17.73
2018-01-24T02:02:42.336Z,17.63
2018-01-24T02:05:10.417Z,18.53
2018-01-24T02:07:38.349Z,18.03
2018-01-24T02:10:06.314Z,16.47
2018-01-24T02:12:34.130Z,16.03
2018-01-24T02:15:01.792Z,16.83
2018-01-24T02:17:29.485Z,17.50
2018-01-24T02:19:57.350Z,16.63
2018-01-24T02:22:25.176Z,17.17
2018-01-24T02:24:53.344Z,19.47
2018-01-24T02:27:21.400Z,19.97
2018-01-24T02:29:53.624Z,18.17
2018-01-24T02:32:21.406Z,18.57
2018-01-24T02:34:49.218Z,20.37
2018-01-24T02:37:19.235Z,18.90
2018-01-24T02:39:47.376Z,18.53
2018-01-24T02:42:17.327Z,16.87
2018-01-24T02:44:45.306Z,18.03
2018-01-24T02:47:13.646Z,19.30
2018-01-24T02:49:41.532Z,21.23
2018-01-24T02:52:11.758Z,18.83
2018-01-24T02:54:41.677Z,19.53
2018-01-24T02:57:09.532Z,20.30
2018-01-24T02:59:37.698Z,19.90
2018-01-24T03:02:05.765Z,22.00
2018-01-24T03:04:33.831Z,20.63
2018-01-24T03:07:01.873Z,22.47
2018-01-24T03:09:29.864Z,21.87
2018-01-24T03:11:59.776Z,20.73
2018-01-24T03:14:28.442Z,21.03
2018-01-24T03:16:56.258Z,19.70
2018-01-24T03:19:26.394Z,21.00
2018-01-24T03:21:54.339Z,23.60
2018-01-24T03:24:22.403Z,23.47
2018-01-24T03:26:50.285Z,24.50
2018-01-24T03:29:20.244Z,22.00
2018-01-24T03:31:48.151Z,22.57
2018-01-24T03:34:18.391Z,24.43
2018-01-24T03:36:46.467Z,23.50
2018-01-24T03:39:16.492Z,22.60
2018-01-24T03:41:44.363Z,21.07
2018-01-24T03:44:12.481Z,22.43
2018-01-24T03:46:42.628Z,21.77
2018-01-24T03:49:10.519Z,20.80
2018-01-24T03:51:38.182Z,19.73
2018-01-24T03:54:08.300Z,19.47
2018-01-24T03:56:36.205Z,22.93
2018-01-24T03:59:04.205Z,21.03
2018-01-24T04:01:34.358Z,21.70
2018-01-24T04:04:06.418Z,21.23
2018-01-24T04:06:34.242Z,20.93
2018-01-24T04:09:04.498Z,23.37
2018-01-24T04:11:32.647Z,19.07
2018-01-24T04:14:00.689Z,21.00
2018-01-24T04:16:28.624Z,20.40
2018-01-24T04:18:56.569Z,20.97
2018-01-24T04:21:24.545Z,21.13
2018-01-24T04:23:52.835Z,21.10
2018-01-24T04:26:20.691Z,19.83
2018-01-24T04:28:48.733Z,22.73
2018-01-24T04:31:16.733Z,22.87
2018-01-24T04:33:44.598Z,19.73
2018-01-24T04:36:14.718Z,20.30
2018-01-24T04:38:44.644Z,21.03
2018-01-24T04:41:12.535Z,21.17
2018-01-24T04:43:40.228Z,21.57
2018-01-24T04:46:08.118Z,21.00
2018-01-24T04:48:36.191Z,21.70
2018-01-24T04:51:04.221Z,22.73
2018-01-24T04:53:32.312Z,21.47
2018-01-24T04:56:00.278Z,20.17
2018-01-24T04:58:30.126Z,22.00
2018-01-24T05:00:58.035Z,20.77
2018-01-24T05:03:30.000Z,19.13
2018-01-24T05:05:58.036Z,22.47
2018-01-24T05:08:25.792Z,22.73
2018-01-24T05:10:53.621Z,23.20
2018-01-24T05:13:21.626Z,21.27
2018-01-24T05:15:49.708Z,25.83
2018-01-24T05:18:17.602Z,24.17
2018-01-24T05:20:49.108Z,24.70
2018-01-24T05:23:17.172Z,24.33
2018-01-24T05:25:45.214Z,22.43
2018-01-24T05:28:13.316Z,23.43
2018-01-24T05:30:42.130Z,24.47
2018-01-24T05:33:10.196Z,24.50
2018-01-24T05:35:38.001Z,22.27
2018-01-24T05:38:05.841Z,21.93
2018-01-24T05:40:34.110Z,22.43
2018-01-24T05:43:03.806Z,23.77
2018-01-24T05:45:31.789Z,23.53
2018-01-24T05:47:59.655Z,25.57
2018-01-24T05:50:27.634Z,22.95
2018-01-24T05:52:59.689Z,23.45
2018-01-24T05:55:27.371Z,22.67
2018-01-24T05:57:55.517Z,23.10
2018-01-24T06:00:23.592Z,26.17
2018-01-24T06:02:51.353Z,23.45
2018-01-24T06:05:19.167Z,25.67
2018-01-24T06:07:46.894Z,24.03
2018-01-24T06:10:14.594Z,20.30
2018-01-24T06:12:42.718Z,21.25
2018-01-24T06:15:10.794Z,24.57
2018-01-24T06:17:38.742Z,24.03
2018-01-24T06:20:06.812Z,22.50
2018-01-24T06:22:34.897Z,20.02
2018-01-24T06:25:02.962Z,22.33
2018-01-24T06:27:30.892Z,28.97
2018-01-24T06:29:58.921Z,29.42
2018-01-24T06:32:26.735Z,35.80
2018-01-24T06:34:54.448Z,31.93
2018-01-24T06:37:22.389Z,34.67
2018-01-24T06:39:50.283Z,24.93
2018-01-24T06:42:19.055Z,23.00
2018-01-24T06:44:50.721Z,22.98
2018-01-24T06:47:18.674Z,26.08
2018-01-24T06:49:46.328Z,26.07
2018-01-24T06:52:16.483Z,24.50
2018-01-24T06:54:45.524Z,26.27
2018-01-24T06:57:13.338Z,28.80
2018-01-24T06:59:41.300Z,24.00
2018-01-24T07:02:09.161Z,24.50
2018-01-24T07:04:36.829Z,20.60
2018-01-24T07:07:07.108Z,22.83
2018-01-24T07:09:35.942Z,25.40
2018-01-24T07:12:15.791Z,22.27
2018-01-24T07:14:45.600Z,21.73
2018-01-24T07:17:13.409Z,21.27
2018-01-24T07:19:41.303Z,22.40
2018-01-24T07:22:09.123Z,24.33
2018-01-24T07:24:37.994Z,28.13
2018-01-24T07:27:06.080Z,22.60
2018-01-24T07:29:33.834Z,22.90
2018-01-24T07:32:01.780Z,23.45
2018-01-24T07:34:29.672Z,22.63
2018-01-24T07:37:02.054Z,24.17
2018-01-24T07:39:29.826Z,23.38
2018-01-24T07:41:57.768Z,22.00
2018-01-24T07:44:25.605Z,22.87
2018-01-24T07:46:53.473Z,26.47
2018-01-24T07:49:21.358Z,23.47
2018-01-24T07:51:49.402Z,25.87
2018-01-24T07:54:19.460Z,25.42
2018-01-24T07:56:47.527Z,24.03
2018-01-24T07:59:17.459Z,28.03
2018-01-24T08:01:45.247Z,25.63
2018-01-24T08:04:15.133Z,30.53
2018-01-24T08:06:42.933Z,29.57
2018-01-24T08:09:12.987Z,26.57
2018-01-24T08:11:40.933Z,26.90
2018-01-24T08:14:08.796Z,28.00
2018-01-24T08:16:36.784Z,27.98
2018-01-24T08:19:04.602Z,24.97
2018-01-24T08:21:32.718Z,28.73
2018-01-24T08:24:00.602Z,26.10
2018-01-24T08:26:28.481Z,27.25
2018-01-24T08:28:56.462Z,28.03
2018-01-24T08:31:26.420Z,24.33
2018-01-24T08:33:54.243Z,27.33
2018-01-24T08:36:21.922Z,28.60
2018-01-24T08:38:49.672Z,26.25
2018-01-24T08:41:17.741Z,30.00
2018-01-24T08:43:45.659Z,22.53
2018-01-24T08:46:14.800Z,26.10
2018-01-24T08:48:43.498Z,34.80
2018-01-24T08:51:15.427Z,37.27
2018-01-24T08:53:43.317Z,50.17
2018-01-24T08:56:13.548Z,89.37
2018-01-24T08:58:41.617Z,69.67
2018-01-24T09:01:09.550Z,62.08
2018-01-24T09:03:37.604Z,60.75
2018-01-24T09:06:06.457Z,40.23
2018-01-24T09:08:34.435Z,34.53
2018-01-24T09:11:02.460Z,46.83
2018-01-24T09:13:30.366Z,43.10
2018-01-24T09:15:58.157Z,51.17
2018-01-24T09:18:26.189Z,39.07
2018-01-24T09:20:57.148Z,38.53
2018-01-24T09:23:29.392Z,39.00
2018-01-24T09:25:57.296Z,37.50
2018-01-24T09:28:25.921Z,33.17
2018-01-24T09:30:53.635Z,36.37
2018-01-24T09:33:21.346Z,36.83
2018-01-24T09:35:49.021Z,30.43
2018-01-24T09:38:16.651Z,36.17
2018-01-24T09:40:46.609Z,31.70
2018-01-24T09:43:14.310Z,34.45
2018-01-24T09:45:41.971Z,31.17
2018-01-24T09:48:09.603Z,28.13
2018-01-24T09:50:37.277Z,32.20
2018-01-24T09:53:04.928Z,32.30
2018-01-24T09:55:32.655Z,34.00
2018-01-24T09:58:04.349Z,34.95
2018-01-24T10:00:32.834Z,36.10
2018-01-24T10:03:00.467Z,30.00
2018-01-24T10:05:28.211Z,30.27
2018-01-24T10:07:55.856Z,32.67
2018-01-24T10:10:25.622Z,37.42
2018-01-24T10:12:53.265Z,38.77
2018-01-24T10:15:21.102Z,50.10
2018-01-24T10:17:48.734Z,33.78
2018-01-24T10:20:16.392Z,32.00
2018-01-24T10:22:46.286Z,36.10
2018-01-24T10:25:13.954Z,36.10
2018-01-24T10:27:43.654Z,37.15
2018-01-24T10:30:12.214Z,33.30
2018-01-24T10:32:39.847Z,34.05
2018-01-24T10:35:07.612Z,32.07
2018-01-24T10:37:35.256Z,32.47
2018-01-24T10:40:05.239Z,34.47
2018-01-24T10:42:33.617Z,32.85
2018-01-24T10:45:05.302Z,28.57
2018-01-24T10:47:32.933Z,33.58
2018-01-24T10:50:00.567Z,31.77
2018-01-24T10:52:30.727Z,28.53
2018-01-24T10:54:58.682Z,31.63
2018-01-24T10:57:26.547Z,33.47
2018-01-24T10:59:54.388Z,29.47
2018-01-24T11:02:26.177Z,30.77
2018-01-24T11:04:54.578Z,30.95
2018-01-24T11:07:22.242Z,28.20
2018-01-24T11:09:51.920Z,27.70
2018-01-24T11:12:20.334Z,27.27
2018-01-24T11:14:47.992Z,26.20
2018-01-24T11:17:15.628Z,26.48
2018-01-24T11:19:48.362Z,26.67
2018-01-24T11:22:16.786Z,28.63
2018-01-24T11:24:44.423Z,26.50
2018-01-24T11:27:12.090Z,29.60
2018-01-24T11:29:39.734Z,24.77
2018-01-24T11:32:07.491Z,25.90
2018-01-24T11:34:35.162Z,25.65
2018-01-24T11:37:02.860Z,25.10
2018-01-24T11:39:32.796Z,26.17
2018-01-24T11:42:01.247Z,29.23
2018-01-24T11:44:28.885Z,26.57
2018-01-24T11:47:00.041Z,28.07
2018-01-24T11:49:28.059Z,24.57
2018-01-24T11:51:55.806Z,24.20
2018-01-24T11:54:25.728Z,26.17
2018-01-24T11:56:53.672Z,24.90
2018-01-24T11:59:21.557Z,25.47
2018-01-24T12:01:51.276Z,29.52
2018-01-24T12:04:18.900Z,28.25
2018-01-24T12:06:46.669Z,27.97
2018-01-24T12:09:14.299Z,31.57
2018-01-24T12:11:44.984Z,29.57
2018-01-24T12:14:12.618Z,27.55
2018-01-24T12:16:41.882Z,30.12
2018-01-24T12:19:09.518Z,28.70
2018-01-24T12:21:37.184Z,32.17
2018-01-24T12:24:04.904Z,28.20
2018-01-24T12:26:32.558Z,29.23
2018-01-24T12:29:00.200Z,35.55
2018-01-24T12:31:27.861Z,32.90
2018-01-24T12:33:59.567Z,34.85
2018-01-24T12:36:27.235Z,35.55
2018-01-24T12:38:58.907Z,34.53
2018-01-24T12:41:28.724Z,32.63
2018-01-24T12:44:00.463Z,32.00
2018-01-24T12:46:30.145Z,36.03
2018-01-24T12:48:57.778Z,32.85
2018-01-24T12:51:25.456Z,33.10
2018-01-24T12:53:57.139Z,27.58
2018-01-24T12:56:24.762Z,32.63
2018-01-24T12:58:52.446Z,27.93
2018-01-24T13:01:20.273Z,33.42
2018-01-24T13:03:47.917Z,29.00
2018-01-24T13:06:17.526Z,29.67
2018-01-24T13:08:46.098Z,29.53
2018-01-24T13:11:13.734Z,28.00
2018-01-24T13:13:43.472Z,31.52
2018-01-24T13:16:11.112Z,35.27
2018-01-24T13:18:39.570Z,31.50
2018-01-24T13:21:07.253Z,34.20
2018-01-24T13:23:34.891Z,26.60
2018-01-24T13:26:02.538Z,28.07
2018-01-24T13:28:32.234Z,29.73
2018-01-24T13:30:59.866Z,29.52
2018-01-24T13:33:29.573Z,32.97
2018-01-24T13:35:59.269Z,29.57
2018-01-24T13:38:26.908Z,29.50
2018-01-24T13:40:54.615Z,28.83
2018-01-24T13:43:23.235Z,30.60
2018-01-24T13:45:50.862Z,28.60
2018-01-24T13:48:22.607Z,30.08
2018-01-24T13:50:50.247Z,29.73
2018-01-24T13:53:19.982Z,29.17
2018-01-24T13:55:48.479Z,27.25
2018-01-24T13:58:16.106Z,25.87
2018-01-24T14:00:43.802Z,27.43
2018-01-24T14:03:13.523Z,29.10
2018-01-24T14:05:45.151Z,28.83
2018-01-24T14:08:17.652Z,25.37
2018-01-24T14:10:47.081Z,24.63
2018-01-24T14:13:14.770Z,30.20
2018-01-24T14:15:42.451Z,26.58
2018-01-24T14:18:10.096Z,31.17
2018-01-24T14:20:46.687Z,28.55
2018-01-24T14:23:16.524Z,31.33
2018-01-24T14:25:44.353Z,32.50
2018-01-24T14:28:17.156Z,30.37
2018-01-24T14:30:44.845Z,26.33
2018-01-24T14:33:12.481Z,30.17
2018-01-24T14:35:41.026Z,26.43
2018-01-24T14:38:09.490Z,30.73
2018-01-24T14:40:42.703Z,31.63
2018-01-24T14:43:10.336Z,27.00
2018-01-24T14:45:38.074Z,32.87
2018-01-24T14:48:05.973Z,29.30
2018-01-24T14:50:33.627Z,36.08
2018-01-24T14:53:05.342Z,35.47
2018-01-24T14:55:32.966Z,33.77
2018-01-24T14:58:00.594Z,29.80
2018-01-24T15:00:30.274Z,39.55
2018-01-24T15:02:58.245Z,40.03
2018-01-24T15:05:25.864Z,38.33
2018-01-24T15:07:54.050Z,34.47
2018-01-24T15:10:28.607Z,26.50
2018-01-24T15:12:56.908Z,32.27
2018-01-24T15:15:28.193Z,32.20
2018-01-24T15:17:55.882Z,35.73
2018-01-24T15:20:24.166Z,40.07
2018-01-24T15:22:56.044Z,29.03
2018-01-24T15:25:23.708Z,31.60
2018-01-24T15:27:53.265Z,34.43
2018-01-24T15:30:21.395Z,40.80
2018-01-24T15:32:49.030Z,44.63
2018-01-24T15:35:19.780Z,47.00
2018-01-24T15:37:47.503Z,41.40
2018-01-24T15:40:15.247Z,44.93
2018-01-24T15:42:42.918Z,39.40
2018-01-24T15:45:10.913Z,48.23
2018-01-24T15:47:40.748Z,43.70
2018-01-24T15:50:09.665Z,43.20
2018-01-24T15:52:37.412Z,51.57
2018-01-24T15:55:05.034Z,59.07
2018-01-24T15:57:32.663Z,71.43
2018-01-24T16:00:00.412Z,76.60
2018-01-24T16:02:28.146Z,63.00
2018-01-24T16:04:55.877Z,69.00
2018-01-24T16:07:23.637Z,68.83
2018-01-24T16:09:51.262Z,66.47
2018-01-24T16:12:18.933Z,71.73
2018-01-24T16:14:46.916Z,81.17
2018-01-24T16:17:14.814Z,74.40
2018-01-24T16:19:42.594Z,73.93
2018-01-24T16:22:10.644Z,67.13
2018-01-24T16:24:38.401Z,84.10
2018-01-24T16:27:06.301Z,68.93
2018-01-24T16:29:37.238Z,68.57
2018-01-24T16:32:10.268Z,71.37
2018-01-24T16:34:37.994Z,75.10
2018-01-24T16:37:05.954Z,79.63
2018-01-24T16:39:34.869Z,83.37
2018-01-24T16:42:02.983Z,81.10
2018-01-24T16:44:31.253Z,83.07
2018-01-24T16:47:00.517Z,95.87
2018-01-24T16:49:28.521Z,85.77
2018-01-24T16:51:56.470Z,94.40
2018-01-24T16:54:25.372Z,104.93
2018-01-24T16:56:55.550Z,107.40
2018-01-24T16:59:24.900Z,100.93
2018-01-24T17:01:52.683Z,105.17
2018-01-24T17:04:27.759Z,101.00
2018-01-24T17:06:55.817Z,113.77
2018-01-24T17:09:27.928Z,115.57
2018-01-24T17:11:56.704Z,109.87
2018-01-24T17:14:25.413Z,116.60
2018-01-24T17:16:53.100Z,119.23
2018-01-24T17:19:20.876Z,133.17
2018-01-24T17:21:48.716Z,128.37
2018-01-24T17:24:17.397Z,121.10
2018-01-24T17:26:51.464Z,115.87
2018-01-24T17:29:19.519Z,108.70
2018-01-24T17:31:49.442Z,117.30
2018-01-24T17:34:17.407Z,112.43
2018-01-24T17:36:45.424Z,107.83
2018-01-24T17:39:13.515Z,104.30
2018-01-24T17:41:43.570Z,104.90
2018-01-24T17:44:11.398Z,96.27
2018-01-24T17:46:39.148Z,98.17
2018-01-24T17:49:06.979Z,87.97
2018-01-24T17:51:35.093Z,86.53
2018-01-24T17:54:03.210Z,86.07
2018-01-24T17:56:31.075Z,83.90
2018-01-24T17:58:58.885Z,80.87
2018-01-24T18:01:26.705Z,73.90
2018-01-24T18:03:54.978Z,73.87
2018-01-24T18:06:22.976Z,72.00
2018-01-24T18:08:50.827Z,70.43
2018-01-24T18:11:18.767Z,69.90
2018-01-24T18:13:48.683Z,65.53
2018-01-24T18:16:16.874Z,61.47
2018-01-24T18:18:44.823Z,55.50
2018-01-24T18:21:13.831Z,57.70
2018-01-24T18:23:42.678Z,58.07
2018-01-24T18:26:10.520Z,57.43
2018-01-24T18:28:40.656Z,55.17
2018-01-24T18:31:09.302Z,53.90
2018-01-24T18:33:38.005Z,56.47
2018-01-24T18:36:10.345Z,54.92
2018-01-24T18:38:38.313Z,56.13
2018-01-24T18:41:06.848Z,49.13
2018-01-24T18:43:35.799Z,51.57
2018-01-24T18:46:03.571Z,47.40
2018-01-24T18:48:31.438Z,46.80
2018-01-24T18:50:59.467Z,50.33
2018-01-24T18:53:27.469Z,45.13
2018-01-24T18:55:55.550Z,43.40
2018-01-24T18:58:25.470Z,41.37
2018-01-24T19:00:56.636Z,43.70
2018-01-24T19:03:25.466Z,42.77
2018-01-24T19:05:54.492Z,41.43
2018-01-24T19:08:30.337Z,37.93
2018-01-24T19:10:58.591Z,40.87
2018-01-24T19:13:26.528Z,40.47
2018-01-24T19:15:55.473Z,40.43
2018-01-24T19:18:23.237Z,37.60
2018-01-24T19:20:51.348Z,33.27
2018-01-24T19:23:21.555Z,35.37
2018-01-24T19:25:49.988Z,41.27
2018-01-24T19:28:19.690Z,35.30
2018-01-24T19:30:48.434Z,33.87
2018-01-24T19:33:16.582Z,38.00
2018-01-24T19:35:44.961Z,34.77
2018-01-24T19:38:15.060Z,32.07
2018-01-24T19:40:43.084Z,34.70
2018-01-24T19:43:15.018Z,35.30
2018-01-24T19:45:43.703Z,34.83
2018-01-24T19:48:15.771Z,35.83
2018-01-24T19:50:43.710Z,33.50
2018-01-24T19:53:12.379Z,30.70
2018-01-24T19:55:40.377Z,34.33
2018-01-24T19:58:11.122Z,33.27
2018-01-24T20:00:39.028Z,30.67
2018-01-24T20:03:07.113Z,30.07
2018-01-24T20:05:35.206Z,29.33
2018-01-24T20:08:03.144Z,33.70
2018-01-24T20:10:33.341Z,36.83
2018-01-24T20:13:01.094Z,29.87
2018-01-24T20:15:28.868Z,30.23
2018-01-24T20:17:58.030Z,30.07
2018-01-24T20:20:26.100Z,30.43
2018-01-24T20:22:53.994Z,34.13
2018-01-24T20:25:24.844Z,32.30
2018-01-24T20:27:53.513Z,31.20
2018-01-24T20:30:21.370Z,35.77
2018-01-24T20:32:53.669Z,37.47
2018-01-24T20:35:21.715Z,45.20
2018-01-24T20:37:49.682Z,47.70
2018-01-24T20:40:17.747Z,50.07
2018-01-24T20:42:46.859Z,49.10
2018-01-24T20:45:16.353Z,52.13
2018-01-24T20:47:44.619Z,51.73
2018-01-24T20:50:14.814Z,52.27
2018-01-24T20:52:43.132Z,54.37
2018-01-24T20:55:10.964Z,56.33
2018-01-24T20:57:41.733Z,52.77
2018-01-24T21:00:12.680Z,49.27
2018-01-24T21:02:40.412Z,48.17
2018-01-24T21:05:10.925Z,54.80
2018-01-24T21:07:42.010Z,44.67
2018-01-24T21:10:11.082Z,44.67
2018-01-24T21:12:39.687Z,48.03
2018-01-24T21:15:07.638Z,45.27
2018-01-24T21:17:36.227Z,41.50
2018-01-24T21:20:06.362Z,45.23
2018-01-24T21:22:34.285Z,40.67
2018-01-24T21:25:02.215Z,41.53
2018-01-24T21:27:31.340Z,40.67
2018-01-24T21:30:11.167Z,37.43
2018-01-24T21:32:53.139Z,41.77
2018-01-24T21:35:35.065Z,40.70
2018-01-24T21:38:02.902Z,38.73
2018-01-24T21:40:32.889Z,42.77
2018-01-24T21:43:00.788Z,42.60
2018-01-24T21:45:32.850Z,42.57
2018-01-24T21:48:01.387Z,47.43
2018-01-24T21:50:31.484Z,42.53
2018-01-24T21:52:59.327Z,40.40
2018-01-24T21:55:27.182Z,41.77
2018-01-24T21:57:57.819Z,43.57
2018-01-24T22:00:27.913Z,45.53
2018-01-24T22:02:57.954Z,42.80
2018-01-24T22:05:25.768Z,40.73
2018-01-24T22:07:55.981Z,40.67
2018-01-24T22:10:26.155Z,40.93
2018-01-24T22:12:54.117Z,38.47
2018-01-24T22:15:25.179Z,38.90
2018-01-24T22:17:53.021Z,40.13
2018-01-24T22:20:20.940Z,40.47
2018-01-24T22:22:50.816Z,40.87
2018-01-24T22:25:18.766Z,35.97
2018-01-24T22:27:46.700Z,38.67
2018-01-24T22:30:14.427Z,36.00
2018-01-24T22:32:42.395Z,39.97
2018-01-24T22:35:16.440Z,37.63
2018-01-24T22:37:44.466Z,40.43
2018-01-24T22:40:13.165Z,37.43
2018-01-24T22:42:40.928Z,39.70
2018-01-24T22:45:08.940Z,33.60
2018-01-24T22:47:36.808Z,35.73
2018-01-24T22:50:04.623Z,36.50
2018-01-24T22:52:32.738Z,35.53
2018-01-24T22:55:03.556Z,33.97
2018-01-24T22:57:31.513Z,34.20
2018-01-24T22:59:59.578Z,33.10
2018-01-24T23:02:27.401Z,32.60
2018-01-24T23:04:55.403Z,32.37
2018-01-24T23:07:23.356Z,30.63
2018-01-24T23:09:51.295Z,31.90
2018-01-24T23:12:19.189Z,32.27
2018-01-24T23:14:47.127Z,34.00
2018-01-24T23:17:15.150Z,30.53
2018-01-24T23:19:43.069Z,30.47
2018-01-24T23:22:11.176Z,29.47
2018-01-24T23:24:43.354Z,29.47
2018-01-24T23:27:11.306Z,26.97
2018-01-24T23:29:39.247Z,31.53
2018-01-24T23:32:07.096Z,29.70
2018-01-24T23:34:35.087Z,27.83
2018-01-24T23:37:03.108Z,24.93
2018-01-24T23:39:35.469Z,30.90
2018-01-24T23:42:05.391Z,24.83
2018-01-24T23:44:33.215Z,25.90
2018-01-24T23:47:01.904Z,26.93
2018-01-24T23:49:29.948Z,28.03
2018-01-24T23:51:57.986Z,25.60
2018-01-24T23:54:25.745Z,26.70
2018-01-24T23:56:55.657Z,25.20
2018-01-24T23:59:23.728Z,24.57
